Time;durP1;ratioP1;P1;durP2;ratioP2;P2;SDS_P1;SDS_P2;PMS_P1;PMS_P2;Temp;Humidity;BMP_temperature;BMP_pressure;BME280_temperature;BME280_humidity;BME280_pressure;Samples;Min_cycle;Max_cycle;Signal;HPM_P1;HPM_P2
2024/01/26 00:00:19;;;;;;;0.33;0.33;;;7.80;78.60;;;;;;6333690;22;20176;-88
2024/01/26 00:02:48;;;;;;;0.40;0.40;;;7.80;78.60;;;;;;6333567;22;20195;-88
2024/01/26 00:05:16;;;;;;;0.50;0.50;;;7.80;78.60;;;;;;6328098;22;20207;-88
2024/01/26 00:10:29;;;;;;;0.30;0.30;;;7.80;78.60;;;;;;6331213;22;20172;-88
2024/01/26 00:15:40;;;;;;;0.40;0.40;;;7.80;78.60;;;;;;6331611;22;20172;-84
2024/01/26 00:18:08;;;;;;;0.50;0.50;;;7.80;78.60;;;;;;6335017;22;20176;-84
2024/01/26 00:20:37;;;;;;;1.00;1.00;;;7.70;78.60;;;;;;6334371;22;20247;-86
2024/01/26 00:23:07;;;;;;;0.70;0.70;;;7.70;78.60;;;;;;6331995;22;20678;-86
2024/01/26 00:25:35;;;;;;;1.80;1.33;;;7.70;78.60;;;;;;6333466;22;20226;-86
2024/01/26 00:33:43;;;;;;;1.17;0.67;;;7.80;79.40;;;;;;6329842;22;20608;-83
2024/01/26 00:38:56;;;;;;;0.30;0.30;;;7.90;79.00;;;;;;6331507;22;20176;-86
2024/01/26 00:41:25;;;;;;;20.67;2.90;;;7.90;78.90;;;;;;6333837;22;20168;-87
2024/01/26 00:44:07;;;;;;;0.53;0.53;;;7.90;78.80;;;;;;6328871;22;20179;-83
2024/01/26 00:46:49;;;;;;;0.97;0.97;;;8.00;78.80;;;;;;6332544;22;20165;-85
2024/01/26 00:49:31;;;;;;;0.97;0.97;;;8.00;78.80;;;;;;6332438;22;20161;-85
2024/01/26 00:55:13;;;;;;;0.80;0.80;;;8.00;78.80;;;;;;6355485;22;20611;-85
2024/01/26 01:06:16;;;;;;;0.33;0.33;;;8.10;78.60;;;;;;6330737;22;20196;-82
2024/01/26 01:08:45;;;;;;;1.23;1.07;;;8.10;78.60;;;;;;6330519;22;20168;-82
2024/01/26 01:11:14;;;;;;;1.63;1.53;;;8.00;78.60;;;;;;6330706;22;20221;-86
2024/01/26 01:13:43;;;;;;;0.80;0.80;;;8.00;79.30;;;;;;6302768;22;20164;-85
2024/01/26 01:16:13;;;;;;;0.63;0.63;;;8.00;78.60;;;;;;6332072;22;20172;-83
2024/01/26 01:18:41;;;;;;;0.70;0.70;;;8.00;78.60;;;;;;6334763;22;21059;-83
2024/01/26 01:21:10;;;;;;;0.80;0.80;;;8.00;78.60;;;;;;6331653;22;20168;-83
2024/01/26 01:23:39;;;;;;;0.60;0.60;;;8.00;78.70;;;;;;6329075;22;20654;-87
2024/01/26 01:26:08;;;;;;;0.50;0.50;;;8.00;78.60;;;;;;6329819;22;20197;-86
2024/01/26 01:28:38;;;;;;;1.10;1.00;;;8.00;78.60;;;;;;6333430;22;20259;-83
2024/01/26 01:31:06;;;;;;;1.43;1.30;;;7.90;78.70;;;;;;6331733;22;20178;-83
2024/01/26 01:33:35;;;;;;;0.43;0.43;;;8.00;78.70;;;;;;6330837;22;20168;-83
2024/01/26 01:36:04;;;;;;;2.83;0.80;;;8.00;78.80;;;;;;6329294;22;20172;-83
2024/01/26 01:38:33;;;;;;;1.97;1.10;;;8.00;78.80;;;;;;6335096;22;20494;-83
2024/01/26 01:41:02;;;;;;;0.73;0.73;;;8.00;78.80;;;;;;6331957;22;20172;-82
2024/01/26 01:43:31;;;;;;;0.97;0.87;;;7.90;78.70;;;;;;6330135;22;20168;-83
2024/01/26 01:46:01;;;;;;;6.77;2.13;;;7.90;78.80;;;;;;6330295;22;20206;-82
2024/01/26 01:48:29;;;;;;;0.50;0.50;;;7.90;78.80;;;;;;6332702;22;20577;-83
2024/01/26 01:50:59;;;;;;;1.43;1.33;;;7.90;78.80;;;;;;6330553;22;20173;-82
2024/01/26 01:53:29;;;;;;;2.27;1.30;;;7.90;78.90;;;;;;6330964;22;20183;-84
2024/01/26 01:56:00;;;;;;;1.70;0.80;;;7.90;78.90;;;;;;6333435;22;20203;-83
2024/01/26 01:58:31;;;;;;;0.80;0.80;;;7.80;78.80;;;;;;6333630;22;20169;-83
2024/01/26 02:01:02;;;;;;;0.50;0.50;;;7.80;79.00;;;;;;6330166;22;20198;-84
2024/01/26 02:03:31;;;;;;;1.13;1.10;;;7.80;79.00;;;;;;6330304;22;20674;-81
2024/01/26 02:05:59;;;;;;;2.50;2.13;;;7.80;79.10;;;;;;6333138;22;20247;-82
2024/01/26 02:08:28;;;;;;;1.10;1.10;;;7.80;79.20;;;;;;6334256;22;20168;-83
2024/01/26 02:10:57;;;;;;;2.07;1.90;;;7.80;79.30;;;;;;6333681;22;20168;-84
2024/01/26 02:13:25;;;;;;;1.27;1.10;;;7.70;79.20;;;;;;6332145;22;20534;-84
2024/01/26 02:15:54;;;;;;;0.60;0.60;;;7.70;79.20;;;;;;6335461;22;20168;-84
2024/01/26 02:18:23;;;;;;;1.53;0.70;;;7.80;79.30;;;;;;6332816;22;20161;-84
2024/01/26 02:20:52;;;;;;;1.30;0.97;;;7.80;79.30;;;;;;6332169;22;20551;-84
2024/01/26 02:23:25;;;;;;;0.97;0.93;;;7.80;79.40;;;;;;6331586;22;20360;-84
2024/01/26 02:25:53;;;;;;;1.93;0.77;;;7.70;79.30;;;;;;6334253;22;20197;-84
2024/01/26 02:28:23;;;;;;;0.57;0.57;;;7.70;79.20;;;;;;6333657;22;20502;-84
2024/01/26 02:30:51;;;;;;;2.63;1.27;;;7.70;79.20;;;;;;6330020;22;20175;-84
2024/01/26 02:33:20;;;;;;;0.87;0.80;;;7.70;79.30;;;;;;6331855;22;20176;-84
2024/01/26 02:35:48;;;;;;;0.63;0.63;;;7.70;79.40;;;;;;6335517;22;20501;-86
2024/01/26 02:38:17;;;;;;;0.87;0.70;;;7.70;79.40;;;;;;6336748;22;20686;-85
2024/01/26 02:40:47;;;;;;;0.80;0.80;;;7.60;79.70;;;;;;6332812;22;20174;-83
2024/01/26 02:43:16;;;;;;;1.20;1.10;;;7.60;79.70;;;;;;6330630;22;20454;-85
2024/01/26 02:45:46;;;;;;;0.40;0.40;;;7.60;79.90;;;;;;6332698;22;20199;-86
2024/01/26 02:48:15;;;;;;;0.30;0.30;;;7.60;80.00;;;;;;6334453;22;20192;-84
2024/01/26 02:50:44;;;;;;;7.53;1.27;;;7.60;80.10;;;;;;6328204;22;20196;-85
2024/01/26 02:53:12;;;;;;;0.90;0.90;;;7.50;80.00;;;;;;6329458;22;20172;-84
2024/01/26 02:55:41;;;;;;;0.50;0.50;;;7.50;80.10;;;;;;6335038;22;20171;-84
2024/01/26 02:58:39;;;;;;;0.73;0.73;;;7.50;80.20;;;;;;6335633;22;20168;-84
2024/01/26 03:01:51;;;;;;;0.73;0.73;;;7.50;80.30;;;;;;6328817;22;20175;-83
2024/01/26 03:04:21;;;;;;;0.40;0.40;;;7.50;80.30;;;;;;6330140;22;20687;-85
2024/01/26 03:06:51;;;;;;;0.63;0.63;;;7.50;80.40;;;;;;6333155;22;20579;-84
2024/01/26 03:09:19;;;;;;;0.87;0.87;;;7.40;80.40;;;;;;6333629;22;20213;-84
2024/01/26 03:12:02;;;;;;;1.93;1.80;;;7.40;80.50;;;;;;6332724;22;20214;-83
2024/01/26 03:14:30;;;;;;;0.50;0.50;;;7.40;80.60;;;;;;6331624;22;20168;-83
2024/01/26 03:17:13;;;;;;;1.10;1.07;;;7.30;80.70;;;;;;6332009;22;20492;-83
2024/01/26 03:19:42;;;;;;;0.40;0.40;;;7.30;80.60;;;;;;6332472;22;20164;-83
2024/01/26 03:22:11;;;;;;;5.00;0.73;;;7.30;80.60;;;;;;6334312;22;20197;-84
2024/01/26 03:24:40;;;;;;;0.93;0.77;;;7.20;80.70;;;;;;6330953;22;20165;-84
2024/01/26 03:27:08;;;;;;;5.80;1.87;;;7.20;80.70;;;;;;6335001;22;20199;-84
2024/01/26 03:29:37;;;;;;;0.50;0.50;;;7.20;80.70;;;;;;6334259;22;20250;-83
2024/01/26 03:32:06;;;;;;;1.13;1.03;;;7.20;80.70;;;;;;6337865;22;20777;-84
2024/01/26 03:34:34;;;;;;;4.60;1.67;;;7.20;80.80;;;;;;6354831;22;20205;-84
2024/01/26 03:37:04;;;;;;;2.83;2.20;;;7.20;80.90;;;;;;6361958;22;20176;-84
2024/01/26 03:39:33;;;;;;;2.13;1.20;;;7.20;81.00;;;;;;6353699;22;20176;-84
2024/01/26 03:42:01;;;;;;;0.60;0.60;;;7.20;81.00;;;;;;6342250;22;20169;-85
2024/01/26 03:44:30;;;;;;;1.40;0.93;;;7.20;81.00;;;;;;6332126;22;20175;-84
2024/01/26 03:46:58;;;;;;;0.53;0.53;;;7.20;81.00;;;;;;6335236;22;20598;-84
2024/01/26 03:49:27;;;;;;;0.87;0.87;;;7.20;81.10;;;;;;6332070;22;20395;-84
2024/01/26 03:51:55;;;;;;;1.20;0.97;;;7.30;81.10;;;;;;6332606;22;20172;-84
2024/01/26 03:54:25;;;;;;;0.37;0.37;;;7.30;80.90;;;;;;6329224;22;20183;-85
2024/01/26 03:56:54;;;;;;;1.07;0.83;;;7.30;80.90;;;;;;6334480;22;20178;-83
2024/01/26 03:59:22;;;;;;;0.70;0.70;;;7.40;80.90;;;;;;6337621;22;20571;-84
2024/01/26 04:01:51;;;;;;;0.53;0.50;;;7.40;80.80;;;;;;6333699;22;20250;-84
2024/01/26 04:04:19;;;;;;;0.83;0.83;;;7.40;80.70;;;;;;6331075;22;20172;-84
2024/01/26 04:06:48;;;;;;;2.20;1.70;;;7.40;80.70;;;;;;6333741;22;20196;-85
2024/01/26 04:09:16;;;;;;;0.40;0.40;;;7.40;80.70;;;;;;6334060;22;20500;-85
2024/01/26 04:11:46;;;;;;;0.40;0.40;;;7.30;80.80;;;;;;6330823;22;20627;-84
2024/01/26 04:14:15;;;;;;;0.40;0.40;;;7.30;80.90;;;;;;6330149;22;20196;-84
2024/01/26 04:25:21;;;;;;;1.43;1.00;;;7.20;81.00;;;;;;6329419;22;20165;-86
2024/01/26 04:31:30;;;;;;;0.80;0.80;;;7.20;81.20;;;;;;6330191;22;20342;-84
2024/01/26 04:36:47;;;;;;;0.73;0.60;;;7.20;81.10;;;;;;6331494;22;20250;-84
2024/01/26 04:39:16;;;;;;;0.50;0.50;;;7.20;81.10;;;;;;6333020;22;20164;-84
2024/01/26 04:41:45;;;;;;;0.43;0.43;;;7.20;81.10;;;;;;6330855;22;20627;-86
2024/01/26 04:44:13;;;;;;;0.53;0.53;;;7.20;81.10;;;;;;6327687;22;20176;-85
2024/01/26 04:46:43;;;;;;;0.70;0.70;;;7.30;81.10;;;;;;6333540;22;20527;-84
2024/01/26 04:49:12;;;;;;;0.43;0.43;;;7.30;81.20;;;;;;6336198;22;20524;-84
2024/01/26 04:51:41;;;;;;;0.77;0.77;;;7.30;81.20;;;;;;6332492;22;20169;-85
2024/01/26 04:54:09;;;;;;;0.40;0.40;;;7.30;80.90;;;;;;6330265;22;20254;-85
2024/01/26 04:56:38;;;;;;;0.70;0.70;;;7.30;80.90;;;;;;6333469;22;20168;-84
2024/01/26 04:59:06;;;;;;;1.57;1.47;;;7.30;81.00;;;;;;6334923;22;20183;-85
2024/01/26 05:04:19;;;;;;;0.87;0.87;;;7.30;81.00;;;;;;6330911;22;20170;-84
2024/01/26 05:06:47;;;;;;;1.47;1.17;;;7.30;80.80;;;;;;6332825;22;20200;-84
2024/01/26 05:09:16;;;;;;;0.50;0.50;;;7.30;80.90;;;;;;6333796;22;20518;-86
2024/01/26 05:14:27;;;;;;;0.87;0.87;;;7.30;80.60;;;;;;6328196;22;20480;-86
2024/01/26 05:16:56;;;;;;;3.00;1.33;;;7.30;80.50;;;;;;6331093;22;20161;-83
2024/01/26 05:19:26;;;;;;;2.00;1.50;;;7.40;80.50;;;;;;6340701;22;20278;-84
2024/01/26 05:21:54;;;;;;;0.63;0.63;;;7.30;80.30;;;;;;6331092;22;20215;-84
2024/01/26 05:24:23;;;;;;;0.93;0.93;;;7.30;80.20;;;;;;6329002;22;20175;-86
2024/01/26 05:26:51;;;;;;;2.10;0.90;;;7.30;80.20;;;;;;6331676;22;20199;-86
2024/01/26 05:29:20;;;;;;;0.67;0.67;;;7.30;80.30;;;;;;6332390;22;20225;-86
2024/01/26 05:31:52;;;;;;;1.60;1.50;;;7.20;80.20;;;;;;6331122;22;20276;-86
2024/01/26 05:34:21;;;;;;;0.97;0.97;;;7.10;80.40;;;;;;6331207;22;20169;-83
2024/01/26 05:36:51;;;;;;;0.60;0.60;;;7.10;80.50;;;;;;6332954;22;20168;-83
2024/01/26 05:39:20;;;;;;;0.80;0.80;;;7.10;80.70;;;;;;6334030;22;20172;-83
2024/01/26 05:41:49;;;;;;;0.50;0.50;;;7.10;80.80;;;;;;6330890;22;20887;-82
2024/01/26 05:44:17;;;;;;;0.40;0.40;;;7.00;80.80;;;;;;6328597;22;20250;-81
2024/01/26 05:46:46;;;;;;;0.40;0.40;;;7.00;80.80;;;;;;6331653;22;20167;-82
2024/01/26 05:49:14;;;;;;;9.13;0.83;;;7.00;80.80;;;;;;6332263;22;20647;-81
2024/01/26 05:51:44;;;;;;;0.40;0.40;;;7.10;81.00;;;;;;6332198;22;20478;-82
2024/01/26 05:57:35;;;;;;;0.67;0.67;;;7.00;80.50;;;;;;6349766;22;20168;-81
2024/01/26 06:00:13;;;;;;;0.47;0.47;;;7.00;80.40;;;;;;6336369;22;20192;-82
2024/01/26 06:02:52;;;;;;;0.83;0.83;;;7.10;80.70;;;;;;6363967;22;20161;-84
2024/01/26 06:05:34;;;;;;;0.40;0.40;;;7.10;80.40;;;;;;6360383;22;20192;-81
2024/01/26 06:08:03;;;;;;;0.97;0.70;;;7.10;80.30;;;;;;6333092;22;20199;-80
2024/01/26 06:10:48;;;;;;;8.47;1.40;;;7.10;80.50;;;;;;6332940;22;20169;-81
2024/01/26 06:13:17;;;;;;;1.03;0.90;;;7.00;80.60;;;;;;6330385;22;20206;-81
2024/01/26 06:15:45;;;;;;;0.67;0.67;;;6.90;80.70;;;;;;6333011;22;20250;-80
2024/01/26 06:18:14;;;;;;;1.07;0.70;;;6.90;80.80;;;;;;6333684;22;20172;-81
2024/01/26 06:20:42;;;;;;;0.50;0.50;;;6.90;80.80;;;;;;6353428;22;20216;-81
2024/01/26 06:23:11;;;;;;;0.50;0.50;;;7.00;81.00;;;;;;6359389;22;20160;-82
2024/01/26 06:25:39;;;;;;;0.40;0.40;;;7.00;80.90;;;;;;6346039;22;20168;-82
2024/01/26 06:28:09;;;;;;;3.37;0.67;;;7.00;80.80;;;;;;6337899;22;20199;-83
2024/01/26 06:30:38;;;;;;;0.50;0.50;;;7.00;80.80;;;;;;6331537;22;20168;-88
2024/01/26 06:33:07;;;;;;;0.40;0.40;;;7.10;80.80;;;;;;6331592;22;20739;-87
2024/01/26 06:35:35;;;;;;;0.90;0.77;;;7.10;80.70;;;;;;6332687;22;20671;-88
2024/01/26 06:38:04;;;;;;;0.47;0.47;;;7.20;80.70;;;;;;6333652;22;20176;-88
2024/01/26 06:40:33;;;;;;;1.30;1.13;;;7.20;80.50;;;;;;6334418;22;20168;-88
2024/01/26 06:43:05;;;;;;;0.50;0.50;;;7.20;80.20;;;;;;6332204;22;20175;-88
2024/01/26 06:45:35;;;;;;;0.47;0.47;;;7.30;80.20;;;;;;6334088;22;20172;-87
2024/01/26 06:48:03;;;;;;;0.97;0.97;;;7.40;80.10;;;;;;6333023;22;20215;-86
2024/01/26 06:50:33;;;;;;;1.60;1.30;;;7.40;79.80;;;;;;6329815;22;20246;-86
2024/01/26 06:53:01;;;;;;;2.13;1.53;;;7.50;79.80;;;;;;6330334;22;20471;-86
2024/01/26 06:58:12;;;;;;;1.50;1.40;;;7.40;79.00;;;;;;6334714;22;20168;-87
2024/01/26 07:01:11;;;;;;;0.53;0.53;;;7.40;78.90;;;;;;6330356;22;20179;-88
2024/01/26 07:03:39;;;;;;;0.40;0.40;;;7.50;79.10;;;;;;6332614;22;20577;-89
2024/01/26 07:06:08;;;;;;;0.70;0.70;;;7.60;78.90;;;;;;6334481;22;20219;-89
2024/01/26 07:11:40;;;;;;;1.50;1.03;;;7.80;79.10;;;;;;6336738;22;20164;-90
2024/01/26 07:14:22;;;;;;;0.40;0.40;;;8.00;79.30;;;;;;6332175;22;20511;-87
2024/01/26 07:16:52;;;;;;;1.07;1.00;;;8.10;78.70;;;;;;6334090;22;20179;-85
2024/01/26 07:19:21;;;;;;;0.70;0.70;;;8.20;78.10;;;;;;6335637;22;20200;-87
2024/01/26 07:21:50;;;;;;;1.40;0.60;;;8.40;77.90;;;;;;6333740;22;20194;-79
2024/01/26 07:24:19;;;;;;;2.40;1.17;;;8.40;76.90;;;;;;6332496;22;20665;-79
2024/01/26 07:27:01;;;;;;;0.50;0.50;;;8.60;77.20;;;;;;6332129;22;20237;-81
2024/01/26 07:29:29;;;;;;;0.47;0.47;;;8.70;77.00;;;;;;6333478;22;20200;-80
2024/01/26 07:32:14;;;;;;;1.47;1.20;;;8.80;76.90;;;;;;6331227;22;20474;-80
2024/01/26 07:34:43;;;;;;;0.70;0.70;;;8.90;76.10;;;;;;6331575;22;20169;-79
2024/01/26 07:37:12;;;;;;;3.10;1.27;;;9.00;76.40;;;;;;6331632;22;20177;-80
2024/01/26 07:39:41;;;;;;;0.87;0.80;;;9.10;76.40;;;;;;6335497;22;20207;-80
2024/01/26 07:47:52;;;;;;;0.53;0.53;;;9.20;75.20;;;;;;6331364;22;20262;-82
2024/01/26 07:50:21;;;;;;;0.83;0.73;;;9.20;74.90;;;;;;6333460;22;20203;-82
2024/01/26 07:53:03;;;;;;;2.43;1.63;;;9.20;74.60;;;;;;6328981;22;20171;-82
2024/01/26 07:55:31;;;;;;;0.83;0.83;;;9.20;74.90;;;;;;6334495;22;20174;-85
2024/01/26 07:58:00;;;;;;;24.03;2.97;;;9.20;74.80;;;;;;6335121;22;20165;-83
2024/01/26 08:00:30;;;;;;;0.50;0.50;;;9.20;75.20;;;;;;6334741;22;20174;-84
2024/01/26 08:03:01;;;;;;;2.13;1.27;;;9.30;75.50;;;;;;6331890;22;20188;-83
2024/01/26 08:05:29;;;;;;;0.77;0.77;;;9.30;75.70;;;;;;6332264;22;20204;-82
2024/01/26 08:07:58;;;;;;;0.50;0.50;;;9.50;75.90;;;;;;6334750;22;20168;-80
2024/01/26 08:10:26;;;;;;;1.07;0.70;;;9.50;75.70;;;;;;6335311;22;20612;-80
2024/01/26 08:12:55;;;;;;;2.93;1.00;;;9.60;74.80;;;;;;6331295;22;20168;-81
2024/01/26 08:15:37;;;;;;;0.80;0.80;;;9.60;74.30;;;;;;6334023;22;20183;-81
2024/01/26 08:18:08;;;;;;;0.53;0.53;;;9.60;74.60;;;;;;6334599;22;20168;-83
2024/01/26 08:20:37;;;;;;;0.60;0.60;;;9.60;73.90;;;;;;6335459;22;20165;-81
2024/01/26 08:25:48;;;;;;;0.87;0.83;;;9.70;74.30;;;;;;6334781;22;20197;-81
2024/01/26 08:31:13;;;;;;;3.90;1.67;;;9.70;73.90;;;;;;6330318;22;20176;-81
2024/01/26 08:33:57;;;;;;;1.43;0.97;;;9.70;73.80;;;;;;6329474;22;20167;-81
2024/01/26 08:36:26;;;;;;;4.30;1.73;;;9.70;73.80;;;;;;6336202;22;20627;-81
2024/01/26 08:38:56;;;;;;;1.00;0.90;;;9.70;73.70;;;;;;6334784;22;20165;-81
2024/01/26 08:44:08;;;;;;;1.60;1.50;;;9.70;74.10;;;;;;6330303;22;20221;-82
2024/01/26 08:46:36;;;;;;;1.37;1.27;;;9.80;74.00;;;;;;6336383;22;20168;-81
2024/01/26 08:49:21;;;;;;;1.03;0.97;;;9.80;74.00;;;;;;6335934;22;20196;-82
2024/01/26 08:51:51;;;;;;;6.27;2.53;;;9.90;73.80;;;;;;6334216;22;20174;-83
2024/01/26 08:54:19;;;;;;;3.60;2.40;;;9.90;73.70;;;;;;6334445;22;20169;-80
2024/01/26 08:56:48;;;;;;;1.30;1.23;;;10.00;73.90;;;;;;6337472;22;20190;-82
2024/01/26 08:59:17;;;;;;;2.40;1.90;;;10.10;74.10;;;;;;6337838;22;20188;-84
2024/01/26 09:01:45;;;;;;;4.70;2.23;;;10.20;73.40;;;;;;6339649;22;20165;-84
2024/01/26 09:04:14;;;;;;;2.47;1.93;;;10.20;73.20;;;;;;6343164;22;20171;-82
2024/01/26 09:06:44;;;;;;;3.97;1.33;;;10.30;73.20;;;;;;6349999;22;20250;-83
2024/01/26 09:09:18;;;;;;;1.10;1.10;;;10.30;72.90;;;;;;6348282;22;20200;-82
2024/01/26 09:11:47;;;;;;;1.27;0.97;;;10.40;72.40;;;;;;6345014;22;20164;-82
2024/01/26 09:14:16;;;;;;;4.10;2.13;;;10.40;71.90;;;;;;6330064;22;20169;-82
2024/01/26 09:16:50;;;;;;;1.20;1.10;;;10.40;72.20;;;;;;6336382;22;20174;-81
2024/01/26 09:19:19;;;;;;;1.73;1.63;;;10.40;72.40;;;;;;6337002;22;20627;-81
2024/01/26 09:21:50;;;;;;;2.80;1.53;;;10.50;72.70;;;;;;6337387;22;20493;-81
2024/01/26 09:24:19;;;;;;;1.53;1.43;;;10.60;72.80;;;;;;6331833;22;20252;-81
2024/01/26 09:26:49;;;;;;;1.70;1.60;;;10.60;72.80;;;;;;6335679;22;20172;-81
2024/01/26 09:29:18;;;;;;;0.93;0.93;;;10.70;72.90;;;;;;6334127;22;20359;-81
2024/01/26 09:31:47;;;;;;;2.47;1.83;;;10.80;73.00;;;;;;6336172;22;20164;-81
2024/01/26 09:34:15;;;;;;;1.43;1.33;;;10.80;72.70;;;;;;6333154;22;20164;-81
2024/01/26 09:36:44;;;;;;;2.63;0.93;;;10.90;73.00;;;;;;6334565;22;20229;-82
2024/01/26 09:39:14;;;;;;;1.40;1.07;;;10.90;73.00;;;;;;6338495;22;20172;-83
2024/01/26 09:41:42;;;;;;;1.70;1.60;;;11.00;73.10;;;;;;6339741;22;20418;-82
2024/01/26 09:44:11;;;;;;;1.83;1.10;;;11.00;73.00;;;;;;6334193;22;20180;-82
2024/01/26 09:46:41;;;;;;;1.20;1.10;;;11.10;72.90;;;;;;6339352;22;20165;-83
2024/01/26 09:49:10;;;;;;;2.20;0.87;;;11.10;73.20;;;;;;6335232;22;20699;-83
2024/01/26 09:51:39;;;;;;;2.07;0.93;;;11.00;73.00;;;;;;6334760;22;20216;-83
2024/01/26 09:54:09;;;;;;;0.60;0.60;;;10.90;73.30;;;;;;6329511;22;20200;-82
2024/01/26 09:56:39;;;;;;;0.80;0.80;;;10.90;73.60;;;;;;6334252;22;20168;-83
2024/01/26 09:59:11;;;;;;;0.70;0.50;;;10.90;73.70;;;;;;6335390;22;20268;-87
2024/01/26 10:01:41;;;;;;;1.20;0.77;;;11.00;74.00;;;;;;6336343;22;20624;-88
2024/01/26 10:04:10;;;;;;;0.43;0.43;;;11.00;74.10;;;;;;6332346;22;20218;-88
2024/01/26 10:06:39;;;;;;;0.60;0.60;;;11.00;74.30;;;;;;6335946;22;20220;-90
2024/01/26 10:09:10;;;;;;;0.87;0.87;;;11.00;74.50;;;;;;6335202;22;20168;-90
2024/01/26 10:11:40;;;;;;;0.73;0.73;;;11.10;74.60;;;;;;6336778;22;20172;-91
2024/01/26 10:14:08;;;;;;;1.00;0.87;;;11.10;74.50;;;;;;6332169;22;20195;-90
2024/01/26 10:16:37;;;;;;;1.37;1.27;;;11.20;74.60;;;;;;6335867;22;20507;-91
2024/01/26 10:19:05;;;;;;;0.40;0.40;;;11.10;74.60;;;;;;6333624;22;20274;-87
2024/01/26 10:21:36;;;;;;;0.75;0.75;;;11.20;74.70;;;;;;6333093;22;20752;-85
2024/01/26 10:24:06;;;;;;;0.87;0.70;;;11.20;75.10;;;;;;6329480;22;20324;-87
2024/01/26 10:26:35;;;;;;;0.53;0.53;;;11.30;75.40;;;;;;6334984;22;20165;-86
2024/01/26 10:29:07;;;;;;;0.33;0.33;;;11.30;75.20;;;;;;6334037;22;20215;-86
2024/01/26 10:31:36;;;;;;;1.10;0.50;;;11.30;74.90;;;;;;6333942;22;20715;-86
2024/01/26 10:34:06;;;;;;;2.47;1.67;;;11.40;75.00;;;;;;6331353;22;20169;-86
2024/01/26 10:36:35;;;;;;;0.50;0.50;;;11.40;74.90;;;;;;6332932;22;20175;-87
2024/01/26 10:39:06;;;;;;;0.77;0.77;;;11.50;75.10;;;;;;6332653;22;20180;-86
2024/01/26 10:41:50;;;;;;;0.40;0.40;;;11.50;75.80;;;;;;6332721;22;20168;-90
2024/01/26 10:47:33;;;;;;;0.80;0.80;;;11.50;74.60;;;;;;6333360;22;20243;-87
2024/01/26 10:50:05;;;;;;;0.50;0.50;;;11.50;74.20;;;;;;6328860;22;20609;-85
2024/01/26 10:52:37;;;;;;;0.47;0.47;;;11.60;74.30;;;;;;6336595;22;20175;-86
2024/01/26 10:55:07;;;;;;;1.60;1.00;;;11.60;74.20;;;;;;6328711;22;20405;-88
2024/01/26 10:57:36;;;;;;;0.47;0.47;;;11.60;74.20;;;;;;6335403;22;20168;-87
2024/01/26 11:00:09;;;;;;;1.47;1.37;;;11.70;74.40;;;;;;6333473;22;20179;-87
2024/01/26 11:02:38;;;;;;;0.40;0.40;;;11.80;74.30;;;;;;6334503;22;20221;-88
2024/01/26 11:05:10;;;;;;;1.53;1.10;;;11.90;74.20;;;;;;6330214;22;20230;-87
2024/01/26 11:07:39;;;;;;;0.50;0.50;;;12.00;73.70;;;;;;6330267;22;20168;-85
2024/01/26 11:10:15;;;;;;;0.50;0.50;;;12.00;73.50;;;;;;6333928;22;20656;-89
2024/01/26 11:12:44;;;;;;;0.47;0.47;;;12.00;73.40;;;;;;6334440;22;20172;-87
2024/01/26 11:15:15;;;;;;;0.40;0.40;;;12.10;73.70;;;;;;6327493;22;20183;-84
2024/01/26 11:17:50;;;;;;;0.93;0.93;;;12.10;72.60;;;;;;6331934;22;20200;-84
2024/01/26 11:20:25;;;;;;;0.93;0.80;;;12.20;73.20;;;;;;6333421;22;20172;-83
2024/01/26 11:23:06;;;;;;;0.70;0.70;;;12.20;72.60;;;;;;6329724;22;20675;-83
2024/01/26 11:25:36;;;;;;;0.67;0.50;;;12.30;73.10;;;;;;6331281;22;20177;-84
2024/01/26 11:28:05;;;;;;;1.53;1.10;;;12.20;72.30;;;;;;6331832;22;20238;-84
2024/01/26 11:30:36;;;;;;;0.83;0.70;;;12.30;72.50;;;;;;6330188;22;20208;-84
2024/01/26 11:33:15;;;;;;;0.50;0.50;;;12.20;71.90;;;;;;6328782;22;20176;-84
2024/01/26 11:35:43;;;;;;;0.90;0.90;;;12.20;72.20;;;;;;6331673;22;20169;-86
2024/01/26 11:38:13;;;;;;;0.57;0.37;;;12.20;72.40;;;;;;6329523;22;20546;-88
2024/01/26 11:40:41;;;;;;;0.47;0.43;;;12.20;72.40;;;;;;6332714;22;20169;-86
2024/01/26 11:43:10;;;;;;;1.13;1.03;;;12.10;72.50;;;;;;6329079;22;20168;-85
2024/01/26 11:45:45;;;;;;;0.70;0.67;;;12.10;72.70;;;;;;6346162;22;20177;-86
2024/01/26 11:48:15;;;;;;;0.67;0.67;;;12.10;72.70;;;;;;6354634;22;20178;-87
2024/01/26 11:50:46;;;;;;;2.00;1.43;;;12.10;72.80;;;;;;6344344;22;20192;-86
2024/01/26 11:53:16;;;;;;;1.13;1.03;;;12.00;72.80;;;;;;6337744;22;20246;-87
2024/01/26 11:55:45;;;;;;;1.77;1.57;;;12.00;72.80;;;;;;6333530;22;20168;-87
2024/01/26 11:58:17;;;;;;;0.53;0.53;;;12.00;72.80;;;;;;6331758;22;20219;-88
2024/01/26 12:00:47;;;;;;;0.80;0.80;;;12.00;72.80;;;;;;6333447;22;20165;-87
2024/01/26 12:03:20;;;;;;;0.40;0.40;;;11.90;72.70;;;;;;6332157;22;20172;-88
2024/01/26 12:05:49;;;;;;;1.50;0.87;;;11.90;72.90;;;;;;6333324;22;20195;-89
2024/01/26 12:08:32;;;;;;;1.83;1.70;;;11.90;72.90;;;;;;6333405;22;20264;-88
2024/01/26 12:11:01;;;;;;;4.33;0.87;;;11.80;72.90;;;;;;6333258;22;20203;-88
2024/01/26 12:13:30;;;;;;;0.90;0.87;;;11.80;73.00;;;;;;6331560;22;20169;-88
2024/01/26 12:16:16;;;;;;;0.43;0.43;;;11.80;72.90;;;;;;6333945;22;20248;-87
2024/01/26 12:18:46;;;;;;;3.50;0.80;;;11.70;72.90;;;;;;6333408;22;20679;-86
2024/01/26 12:24:29;;;;;;;1.23;1.10;;;11.60;73.00;;;;;;6329345;22;20564;-86
2024/01/26 12:26:58;;;;;;;0.80;0.70;;;11.50;72.80;;;;;;6331965;22;20175;-87
2024/01/26 12:29:28;;;;;;;1.17;1.13;;;11.50;72.80;;;;;;6341756;22;20168;-86
2024/01/26 12:32:04;;;;;;;1.43;1.30;;;11.40;72.70;;;;;;6333962;22;20516;-86
2024/01/26 12:34:34;;;;;;;0.73;0.73;;;11.40;72.80;;;;;;6331839;22;20179;-85
2024/01/26 12:37:04;;;;;;;3.90;1.53;;;11.40;73.00;;;;;;6332580;22;20207;-86
2024/01/26 12:39:33;;;;;;;1.43;1.23;;;11.40;73.10;;;;;;6334945;22;20533;-87
2024/01/26 12:42:02;;;;;;;4.67;1.00;;;11.30;73.00;;;;;;6333095;22;20654;-86
2024/01/26 12:44:31;;;;;;;0.43;0.43;;;11.20;72.80;;;;;;6330084;22;20169;-87
2024/01/26 12:47:03;;;;;;;2.40;1.20;;;11.20;73.10;;;;;;6334305;22;20261;-86
2024/01/26 12:49:33;;;;;;;0.80;0.80;;;11.20;73.30;;;;;;6334144;22;20165;-86
2024/01/26 12:52:01;;;;;;;0.73;0.73;;;11.10;73.40;;;;;;6334314;22;20673;-86
2024/01/26 12:54:30;;;;;;;2.00;1.17;;;11.10;73.60;;;;;;6330583;22;20400;-87
2024/01/26 12:56:59;;;;;;;0.83;0.83;;;11.10;73.80;;;;;;6333936;22;20236;-86
2024/01/26 12:59:28;;;;;;;2.17;1.00;;;11.10;73.70;;;;;;6333178;22;20256;-86
2024/01/26 13:01:57;;;;;;;0.90;0.80;;;11.10;73.60;;;;;;6333655;22;20667;-86
2024/01/26 13:04:28;;;;;;;1.67;0.80;;;11.10;73.50;;;;;;6331065;22;20169;-86
2024/01/26 13:06:57;;;;;;;0.60;0.60;;;11.10;73.60;;;;;;6334015;22;20192;-88
2024/01/26 13:09:26;;;;;;;0.50;0.50;;;11.30;74.00;;;;;;6334817;22;20243;-86
2024/01/26 13:11:56;;;;;;;1.03;0.80;;;11.50;74.40;;;;;;6333143;22;20192;-87
2024/01/26 13:14:27;;;;;;;1.37;1.27;;;11.60;74.70;;;;;;6330005;22;20168;-88
2024/01/26 13:16:55;;;;;;;1.33;1.20;;;11.60;74.20;;;;;;6334740;22;20654;-88
2024/01/26 13:19:26;;;;;;;3.40;1.60;;;11.50;73.80;;;;;;6333422;22;20164;-88
2024/01/26 13:21:56;;;;;;;1.23;1.10;;;11.50;73.70;;;;;;6335756;22;20183;-90
2024/01/26 13:24:26;;;;;;;1.80;1.67;;;11.50;73.60;;;;;;6329886;22;20165;-89
2024/01/26 13:26:55;;;;;;;1.23;0.93;;;11.50;73.80;;;;;;6334511;22;20683;-88
2024/01/26 13:29:25;;;;;;;2.80;1.05;;;11.50;73.70;;;;;;6339729;22;20863;-89
2024/01/26 13:31:54;;;;;;;1.83;1.37;;;11.40;73.70;;;;;;6347730;22;20188;-90
2024/01/26 13:34:22;;;;;;;1.17;1.13;;;11.40;73.70;;;;;;6330416;22;20171;-88
2024/01/26 13:36:53;;;;;;;1.90;1.10;;;11.40;74.00;;;;;;6331439;22;20741;-89
2024/01/26 13:39:21;;;;;;;1.50;1.40;;;11.60;75.10;;;;;;6341959;22;20508;-90
2024/01/26 13:41:50;;;;;;;1.27;1.07;;;11.80;74.30;;;;;;6327840;22;20211;-88
2024/01/26 13:47:01;;;;;;;1.20;1.10;;;12.50;72.50;;;;;;6332490;22;20170;-86
2024/01/26 13:54:56;;;;;;;1.03;1.00;;;13.60;69.20;;;;;;6326868;22;20174;-84
2024/01/26 14:00:21;;;;;;;0.57;0.57;;;17.10;64.50;;;;;;6330299;22;20176;-86
2024/01/26 14:02:51;;;;;;;0.60;0.60;;;20.40;58.30;;;;;;6330509;22;20183;-87
2024/01/26 14:05:20;;;;;;;0.93;0.70;;;22.20;53.20;;;;;;6330588;22;20662;-88
2024/01/26 14:07:50;;;;;;;2.17;0.98;;;21.10;53.00;;;;;;6334425;22;20165;-88
2024/01/26 14:10:19;;;;;;;2.70;1.33;;;19.50;55.60;;;;;;6334350;22;20164;-85
2024/01/26 14:15:30;;;;;;;2.47;1.83;;;20.40;55.70;;;;;;6328574;22;20864;-87
2024/01/26 14:17:59;;;;;;;6.32;1.00;;;22.10;52.40;;;;;;6328738;22;21019;-84
2024/01/26 14:20:28;;;;;;;2.67;0.73;;;23.00;50.40;;;;;;6330638;22;20697;-86
2024/01/26 14:22:59;;;;;;;1.33;0.73;;;21.90;50.70;;;;;;6329569;22;20172;-84
2024/01/26 14:28:13;;;;;;;3.08;1.23;;;22.70;50.70;;;;;;6332375;22;20225;-85
2024/01/26 14:33:37;;;;;;;0.40;0.40;;;22.20;50.00;;;;;;6339381;22;20171;-85
2024/01/26 14:36:07;;;;;;;0.77;0.77;;;21.20;51.10;;;;;;6344442;22;20164;-85
2024/01/26 14:41:34;;;;;;;0.70;0.70;;;20.40;50.60;;;;;;6331852;22;20168;-84
2024/01/26 14:44:02;;;;;;;1.00;0.90;;;19.50;50.60;;;;;;6329605;22;20671;-85
2024/01/26 14:46:33;;;;;;;0.77;0.77;;;18.90;51.00;;;;;;6336780;22;20203;-90